createdAt,value
2023-01-13T00:03:38.293Z,22.67
2023-01-13T00:08:52.219Z,23.10
2023-01-13T00:13:45.715Z,24.35
2023-01-13T00:18:39.525Z,22.42
2023-01-13T00:23:35.137Z,23.02
2023-01-13T00:28:28.339Z,21.60
2023-01-13T00:33:22.496Z,21.27
2023-01-13T00:38:15.574Z,17.38
2023-01-13T00:43:24.679Z,15.30
2023-01-13T00:48:19.931Z,15.57
2023-01-13T00:53:14.402Z,15.32
2023-01-13T00:58:08.015Z,17.83
2023-01-13T01:03:01.890Z,20.17
2023-01-13T01:07:55.547Z,21.98
2023-01-13T01:12:51.405Z,22.88
2023-01-13T01:17:45.079Z,21.35
2023-01-13T01:22:38.544Z,21.92
2023-01-13T01:27:32.056Z,19.77
2023-01-13T01:32:26.187Z,20.50
2023-01-13T01:37:20.281Z,19.90
2023-01-13T01:42:36.370Z,18.08
2023-01-13T01:47:31.086Z,18.42
2023-01-13T01:52:40.979Z,14.88
2023-01-13T01:57:43.956Z,15.95
2023-01-13T02:02:37.205Z,17.70
2023-01-13T02:07:32.860Z,20.15
2023-01-13T02:12:35.474Z,20.55
2023-01-13T02:17:37.987Z,21.08
2023-01-13T02:22:35.560Z,20.23
2023-01-13T02:28:19.739Z,19.98
2023-01-13T02:33:19.249Z,17.42
2023-01-13T02:38:14.839Z,15.80
2023-01-13T02:43:38.552Z,17.02
2023-01-13T02:48:33.938Z,12.90
2023-01-13T02:53:36.724Z,12.35
2023-01-13T02:58:30.743Z,12.35
2023-01-13T03:03:24.799Z,13.65
2023-01-13T03:08:46.723Z,13.00
2023-01-13T03:13:53.819Z,10.82
2023-01-13T03:19:09.670Z,10.30
2023-01-13T03:24:51.800Z,10.20
2023-01-13T03:29:55.053Z,12.52
2023-01-13T03:35:02.966Z,11.65
2023-01-13T03:40:01.161Z,10.73
2023-01-13T03:45:03.944Z,11.23
2023-01-13T03:50:01.298Z,11.15
2023-01-13T03:55:01.065Z,12.55
2023-01-13T03:59:58.378Z,12.65
2023-01-13T04:04:58.302Z,13.10
2023-01-13T04:10:00.359Z,15.60
2023-01-13T04:14:56.205Z,15.63
2023-01-13T04:19:50.517Z,17.92
2023-01-13T04:24:44.391Z,16.35
2023-01-13T04:29:38.328Z,16.65
2023-01-13T04:34:31.930Z,17.65
2023-01-13T04:39:25.416Z,17.95
2023-01-13T04:44:19.325Z,17.88
2023-01-13T04:49:13.170Z,18.42
2023-01-13T04:54:07.408Z,18.75
2023-01-13T04:59:04.395Z,17.05
2023-01-13T05:03:59.867Z,19.33
2023-01-13T05:08:55.483Z,19.23
2023-01-13T05:14:08.629Z,19.85
2023-01-13T05:19:02.305Z,18.75
2023-01-13T05:24:13.919Z,20.63
2023-01-13T05:29:06.979Z,20.98
2023-01-13T05:34:00.265Z,19.88
2023-01-13T05:38:53.696Z,20.75
2023-01-13T05:43:46.827Z,18.60
2023-01-13T05:48:42.553Z,21.48
2023-01-13T05:53:36.426Z,17.48
2023-01-13T05:58:30.532Z,15.82
2023-01-13T06:03:24.122Z,15.88
2023-01-13T06:08:19.456Z,16.23
2023-01-13T06:13:13.193Z,16.42
2023-01-13T06:18:07.239Z,17.48
2023-01-13T06:23:01.137Z,17.40
2023-01-13T06:27:55.636Z,15.95
2023-01-13T06:33:09.843Z,17.25
2023-01-13T06:38:04.552Z,17.55
2023-01-13T06:43:17.777Z,16.20
2023-01-13T06:48:11.950Z,16.98
2023-01-13T06:53:05.589Z,17.17
2023-01-13T06:57:59.524Z,16.13
2023-01-13T07:02:52.922Z,17.92
2023-01-13T07:07:46.565Z,17.02
2023-01-13T07:12:59.645Z,17.35
2023-01-13T07:17:53.575Z,20.20
2023-01-13T07:22:47.279Z,21.08
2023-01-13T07:27:41.271Z,18.95
2023-01-13T07:32:34.635Z,16.45
2023-01-13T07:37:28.905Z,17.85
2023-01-13T07:42:40.329Z,17.10
2023-01-13T07:47:34.460Z,16.67
2023-01-13T07:52:28.228Z,18.42
2023-01-13T07:57:21.797Z,17.88
2023-01-13T08:02:15.429Z,20.80
2023-01-13T08:07:09.411Z,20.90
2023-01-13T08:12:20.734Z,21.52
2023-01-13T08:17:14.856Z,19.60
2023-01-13T08:22:08.683Z,21.15
2023-01-13T08:27:02.712Z,20.80
2023-01-13T08:31:56.082Z,19.30
2023-01-13T08:36:51.149Z,19.27
2023-01-13T08:41:57.609Z,19.63
2023-01-13T08:46:51.472Z,18.98
2023-01-13T08:51:45.012Z,17.33
2023-01-13T08:56:39.762Z,18.52
2023-01-13T09:01:33.178Z,17.80
2023-01-13T09:06:27.054Z,31.48
2023-01-13T09:11:39.755Z,20.75
2023-01-13T09:16:33.678Z,19.30
2023-01-13T09:21:28.398Z,18.85
2023-01-13T09:26:22.639Z,18.65
2023-01-13T09:31:16.687Z,19.75
2023-01-13T09:36:10.887Z,18.08
2023-01-13T09:41:24.545Z,20.00
2023-01-13T09:46:41.409Z,19.50
2023-01-13T09:51:40.299Z,20.55
2023-01-13T09:56:33.963Z,23.67
2023-01-13T10:02:07.886Z,24.30
2023-01-13T10:07:04.269Z,23.50
2023-01-13T10:12:18.363Z,23.52
2023-01-13T10:18:02.060Z,29.05
2023-01-13T10:23:38.049Z,38.65
2023-01-13T10:28:31.661Z,78.32
2023-01-13T10:33:28.900Z,56.10
2023-01-13T10:38:26.894Z,51.05
2023-01-13T10:43:20.881Z,42.13
2023-01-13T10:48:15.508Z,35.95
2023-01-13T10:53:25.092Z,29.13
2023-01-13T11:03:23.622Z,29.45
2023-01-13T11:08:21.492Z,27.35
2023-01-13T11:13:31.174Z,28.50
2023-01-13T11:18:27.239Z,51.38
2023-01-13T11:23:40.423Z,31.88
2023-01-13T11:28:46.791Z,28.38
2023-01-13T11:33:59.604Z,38.53
2023-01-13T11:38:59.640Z,33.90
2023-01-13T11:44:18.287Z,36.83
2023-01-13T11:49:22.541Z,36.00
2023-01-13T11:54:18.730Z,32.60
2023-01-13T12:00:18.670Z,28.23
2023-01-13T12:05:30.128Z,27.65
2023-01-13T12:10:43.730Z,26.67
2023-01-13T12:15:54.638Z,28.30
2023-01-13T12:21:01.673Z,28.45
2023-01-13T12:25:59.720Z,29.40
2023-01-13T12:30:57.720Z,32.42
2023-01-13T12:35:58.965Z,31.65
2023-01-13T12:41:20.933Z,29.77
2023-01-13T12:46:20.405Z,28.92
2023-01-13T12:51:51.692Z,28.08
2023-01-13T12:56:45.783Z,27.88
2023-01-13T13:01:39.531Z,25.73
2023-01-13T13:06:33.704Z,28.48
2023-01-13T13:12:00.683Z,28.30
2023-01-13T13:16:54.870Z,60.40
2023-01-13T13:22:12.984Z,33.40
2023-01-13T13:27:41.121Z,31.13
2023-01-13T13:32:52.388Z,31.30
2023-01-13T13:38:06.601Z,31.65
2023-01-13T13:43:17.910Z,32.38
2023-01-13T13:48:19.983Z,31.92
2023-01-13T13:53:13.938Z,29.35
2023-01-13T13:58:15.740Z,29.95
2023-01-13T14:03:27.360Z,29.25
2023-01-13T14:08:21.380Z,30.95
2023-01-13T14:13:32.748Z,29.73
2023-01-13T14:18:27.213Z,30.85
2023-01-13T14:23:25.742Z,31.48
2023-01-13T14:28:39.435Z,28.77
2023-01-13T14:34:32.253Z,28.42
2023-01-13T14:39:34.121Z,31.58
2023-01-13T14:44:30.791Z,28.98
2023-01-13T14:49:42.137Z,31.48
2023-01-13T14:54:50.324Z,30.33
2023-01-13T14:59:52.493Z,33.63
2023-01-13T15:04:46.439Z,27.95
2023-01-13T15:09:45.806Z,29.02
2023-01-13T15:14:39.793Z,28.17
2023-01-13T15:19:33.928Z,30.75
2023-01-13T15:24:27.598Z,29.88
2023-01-13T15:29:20.930Z,33.75
2023-01-13T15:34:14.447Z,36.28
2023-01-13T15:39:08.253Z,30.25
2023-01-13T15:44:20.746Z,32.80
2023-01-13T15:49:19.852Z,33.80
2023-01-13T15:54:13.442Z,34.20
2023-01-13T15:59:39.896Z,33.75
2023-01-13T16:04:34.020Z,33.70
2023-01-13T16:09:28.425Z,32.35
2023-01-13T16:14:22.061Z,30.80
2023-01-13T16:19:14.822Z,31.70
2023-01-13T16:24:08.717Z,33.50
2023-01-13T16:29:02.147Z,31.58
2023-01-13T16:33:55.086Z,35.35
2023-01-13T16:38:50.347Z,35.35
2023-01-13T16:43:43.999Z,43.90
2023-01-13T16:48:37.434Z,36.85
2023-01-13T16:53:31.854Z,37.17
2023-01-13T16:58:26.025Z,37.17
2023-01-13T17:03:20.272Z,45.33
2023-01-13T17:08:18.652Z,51.25
2023-01-13T17:13:16.267Z,44.23
2023-01-13T17:18:12.397Z,42.08
2023-01-13T17:23:06.579Z,42.13
2023-01-13T17:28:00.939Z,44.40
2023-01-13T17:32:54.678Z,44.08
2023-01-13T17:37:48.930Z,40.42
2023-01-13T17:42:43.387Z,43.00
2023-01-13T17:47:37.480Z,40.00
2023-01-13T17:52:30.310Z,42.38
2023-01-13T17:57:24.442Z,39.78
2023-01-13T18:02:19.673Z,45.67
2023-01-13T18:07:14.106Z,43.33
2023-01-13T18:12:08.216Z,57.63
2023-01-13T18:17:02.231Z,53.25
2023-01-13T18:22:13.658Z,47.90
2023-01-13T18:27:24.889Z,50.03
2023-01-13T18:32:18.951Z,52.40
2023-01-13T18:37:12.352Z,51.67
2023-01-13T18:42:25.916Z,56.65
2023-01-13T18:47:20.266Z,44.15
2023-01-13T18:52:14.655Z,39.13
2023-01-13T18:57:08.471Z,45.55
2023-01-13T19:02:03.139Z,43.42
2023-01-13T19:07:01.360Z,40.50
2023-01-13T19:11:55.195Z,38.47
2023-01-13T19:16:49.219Z,42.58
2023-01-13T19:21:43.200Z,38.53
2023-01-13T19:26:37.411Z,43.88
2023-01-13T19:31:31.218Z,38.10
2023-01-13T19:36:25.510Z,41.47
2023-01-13T19:41:37.567Z,41.50
2023-01-13T19:46:31.772Z,43.83
2023-01-13T19:51:26.359Z,51.22
2023-01-13T19:56:18.617Z,52.40
2023-01-13T20:01:16.873Z,47.47
2023-01-13T20:06:12.231Z,53.30
2023-01-13T20:11:22.348Z,50.50
2023-01-13T20:16:16.086Z,52.47
2023-01-13T20:21:09.833Z,50.20
2023-01-13T20:26:04.072Z,53.72
2023-01-13T20:30:58.443Z,46.47
2023-01-13T20:36:18.391Z,44.47
2023-01-13T20:41:29.446Z,44.78
2023-01-13T20:46:23.469Z,43.80
2023-01-13T20:51:17.519Z,47.65
2023-01-13T20:56:11.068Z,48.53
2023-01-13T21:01:05.739Z,51.05
2023-01-13T21:06:00.205Z,51.40
2023-01-13T21:11:01.229Z,54.38
2023-01-13T21:15:56.583Z,50.45
2023-01-13T21:20:51.654Z,43.35
2023-01-13T21:25:45.984Z,49.63
2023-01-13T21:30:40.146Z,46.28
2023-01-13T21:35:33.845Z,44.08
2023-01-13T21:40:28.597Z,39.40
2023-01-13T21:45:41.110Z,38.50
2023-01-13T21:50:34.891Z,38.17
2023-01-13T21:55:29.452Z,41.80
2023-01-13T22:00:27.629Z,38.13
2023-01-13T22:05:23.295Z,38.90
2023-01-13T22:10:58.394Z,37.40
2023-01-13T22:15:52.670Z,46.40
2023-01-13T22:20:46.668Z,40.13
2023-01-13T22:25:40.947Z,45.13
2023-01-13T22:30:34.632Z,43.20
2023-01-13T22:35:28.827Z,41.42
2023-01-13T22:40:22.428Z,41.38
2023-01-13T22:45:15.938Z,34.80
2023-01-13T22:50:13.039Z,37.95
2023-01-13T22:55:07.392Z,37.60
2023-01-13T23:00:01.385Z,31.85
2023-01-13T23:04:54.448Z,32.33
2023-01-13T23:09:48.646Z,31.13
2023-01-13T23:14:41.948Z,32.67
2023-01-13T23:19:36.485Z,30.20
2023-01-13T23:24:30.382Z,29.48
2023-01-13T23:29:24.842Z,32.00
2023-01-13T23:34:18.572Z,33.88
2023-01-13T23:39:12.172Z,31.10
2023-01-13T23:44:07.393Z,32.60
2023-01-13T23:49:02.929Z,30.80
2023-01-13T23:53:58.285Z,27.83
2023-01-13T23:58:51.721Z,28.30
